createdAt,value
2023-03-13T00:00:03.144Z,6.09
2023-03-13T00:05:02.907Z,6.18
2023-03-13T00:10:02.663Z,6.23
2023-03-13T00:15:02.463Z,6.27
2023-03-13T00:20:02.222Z,6.18
2023-03-13T00:25:03.174Z,6.15
2023-03-13T00:30:02.923Z,6.15
2023-03-13T00:35:02.534Z,6.02
2023-03-13T00:40:02.265Z,5.9
2023-03-13T00:45:03.030Z,5.8
2023-03-13T00:50:02.623Z,5.64
2023-03-13T00:55:03.315Z,5.77
2023-03-13T01:00:03.087Z,5.77
2023-03-13T01:05:02.872Z,5.74
2023-03-13T01:10:02.577Z,5.63
2023-03-13T01:15:02.462Z,5.68
2023-03-13T01:20:02.196Z,5.73
2023-03-13T01:25:02.922Z,5.86
2023-03-13T01:30:02.723Z,6
2023-03-13T01:35:02.720Z,6.14
2023-03-13T01:40:02.714Z,6.24
2023-03-13T01:45:02.701Z,6.43
2023-03-13T01:50:02.469Z,6.69
2023-03-13T01:55:03.816Z,6.83
2023-03-13T02:00:02.242Z,6.96
2023-03-13T02:05:02.938Z,7.06
2023-03-13T02:10:02.820Z,6.84
2023-03-13T02:15:03.262Z,6.88
2023-03-13T02:20:02.744Z,6.83
2023-03-13T02:25:02.491Z,6.81
2023-03-13T02:30:02.481Z,6.73
2023-03-13T02:35:03.074Z,6.67
2023-03-13T02:40:02.779Z,6.71
2023-03-13T02:45:02.450Z,6.78
2023-03-13T02:50:03.169Z,6.79
2023-03-13T02:55:02.914Z,6.82
2023-03-13T03:00:03.120Z,6.94
2023-03-13T03:05:02.975Z,7.03
2023-03-13T03:10:02.679Z,7.09
2023-03-13T03:15:02.538Z,7.08
2023-03-13T03:20:02.284Z,7.11
2023-03-13T03:25:02.248Z,7.14
2023-03-13T03:30:03.424Z,7.11
2023-03-13T03:35:02.873Z,7.16
2023-03-13T03:40:02.608Z,7.09
2023-03-13T03:45:02.372Z,7.1
2023-03-13T03:50:03.099Z,7.04
2023-03-13T03:55:03.784Z,7.02
2023-03-13T04:00:03.098Z,7.07
2023-03-13T04:05:02.948Z,6.93
2023-03-13T04:10:03.043Z,7.11
2023-03-13T04:15:02.694Z,7.06
2023-03-13T04:20:02.420Z,7.09
2023-03-13T04:25:03.102Z,7.07
2023-03-13T04:30:02.296Z,7.03
2023-03-13T04:35:03.283Z,7.14
2023-03-13T04:40:03.075Z,7.28
2023-03-13T04:45:02.816Z,7.29
2023-03-13T04:55:03.158Z,7.11
2023-03-13T05:00:02.263Z,7.02
2023-03-13T05:05:02.583Z,6.96
2023-03-13T05:10:02.228Z,7.06
2023-03-13T05:15:03.061Z,7.04
2023-03-13T05:20:02.800Z,7.11
2023-03-13T05:25:02.519Z,7.17
2023-03-13T05:30:02.660Z,7.11
2023-03-13T05:35:02.413Z,7.18
2023-03-13T05:40:02.690Z,7.33
2023-03-13T05:45:02.493Z,7.41
2023-03-13T05:50:02.242Z,7.64
2023-03-13T05:55:03.524Z,7.63
2023-03-13T06:00:02.805Z,7.59
2023-03-13T06:05:02.606Z,7.62
2023-03-13T06:10:02.428Z,7.64
2023-03-13T06:15:03.207Z,7.57
2023-03-13T06:20:02.990Z,7.7
2023-03-13T06:25:03.054Z,7.74
2023-03-13T06:30:02.798Z,7.72
2023-03-13T06:35:02.405Z,7.79
2023-03-13T06:40:02.596Z,7.73
2023-03-13T06:45:02.452Z,7.66
2023-03-13T06:50:02.311Z,7.51
2023-03-13T06:55:03.999Z,7.52
2023-03-13T07:00:02.949Z,7.45
2023-03-13T07:05:02.808Z,7.48
2023-03-13T07:10:02.589Z,7.46
2023-03-13T07:15:02.370Z,7.45
2023-03-13T07:20:03.164Z,7.48
2023-03-13T07:25:02.873Z,7.58
2023-03-13T07:30:02.767Z,7.62
2023-03-13T07:35:02.828Z,7.73
2023-03-13T07:40:02.260Z,7.88
2023-03-13T07:45:02.996Z,8.03
2023-03-13T07:50:02.916Z,7.97
2023-03-13T07:55:03.319Z,7.94
2023-03-13T08:00:03.216Z,7.94
2023-03-13T08:05:02.999Z,8.03
2023-03-13T08:10:02.659Z,8.09
2023-03-13T08:15:02.481Z,8.28
2023-03-13T08:20:03.162Z,8.37
2023-03-13T08:25:02.829Z,8.49
2023-03-13T08:30:02.641Z,8.6
2023-03-13T08:35:02.734Z,8.74
2023-03-13T08:40:02.599Z,8.9
2023-03-13T08:45:02.667Z,9.16
2023-03-13T08:50:02.452Z,9.5
2023-03-13T08:55:03.078Z,9.43
2023-03-13T09:00:03.081Z,9.34
2023-03-13T09:05:02.886Z,9.28
2023-03-13T09:10:02.895Z,9.29
2023-03-13T09:15:02.779Z,9.34
2023-03-13T09:20:02.826Z,9.4
2023-03-13T09:25:02.602Z,9.35
2023-03-13T09:30:02.276Z,9.46
2023-03-13T09:35:03.021Z,9.53
2023-03-13T09:40:02.826Z,9.59
2023-03-13T09:45:02.755Z,9.7
2023-03-13T09:50:02.761Z,9.95
2023-03-13T09:55:03.209Z,10.26
2023-03-13T10:00:02.538Z,10.35
2023-03-13T10:05:03.157Z,10.54
2023-03-13T10:10:02.903Z,10.57
2023-03-13T10:15:02.787Z,10.6
2023-03-13T10:20:02.545Z,10.78
2023-03-13T10:25:02.270Z,10.82
2023-03-13T10:30:03.173Z,10.95
2023-03-13T10:35:02.793Z,10.9
2023-03-13T10:40:03.050Z,10.86
2023-03-13T10:45:02.481Z,10.92
2023-03-13T10:50:02.265Z,11.16
2023-03-13T10:55:03.625Z,11.41
2023-03-13T11:00:04.200Z,11.72
2023-03-13T11:05:02.555Z,11.99
2023-03-13T11:10:02.347Z,12.25
2023-03-13T11:15:03.137Z,12.36
2023-03-13T11:20:02.868Z,12.59
2023-03-13T11:25:02.618Z,12.7
2023-03-13T11:30:02.434Z,12.92
2023-03-13T11:35:03.017Z,12.94
2023-03-13T11:40:02.916Z,13.32
2023-03-13T11:45:02.858Z,13.2
2023-03-13T11:50:03.044Z,13.54
2023-03-13T11:55:03.311Z,13.67
2023-03-13T12:00:02.475Z,13.56
2023-03-13T12:05:02.287Z,13.35
2023-03-13T12:10:03.086Z,13.32
2023-03-13T12:15:02.315Z,13.23
2023-03-13T12:20:02.227Z,13.46
2023-03-13T12:25:05.873Z,13.63
2023-03-13T12:30:02.710Z,13.55
2023-03-13T12:35:04.262Z,13.6
2023-03-13T12:40:02.446Z,13.57
2023-03-13T12:45:03.191Z,13.45
2023-03-13T12:50:02.887Z,13.47
2023-03-13T12:55:03.470Z,13.6
2023-03-13T13:00:02.578Z,13.69
2023-03-13T13:05:03.179Z,13.65
2023-03-13T13:10:02.271Z,13.7
2023-03-13T13:15:03.081Z,14.04
2023-03-13T13:20:03.278Z,14.2
2023-03-13T13:25:02.638Z,14.52
2023-03-13T13:30:02.438Z,14.38
2023-03-13T13:35:03.168Z,14.33
2023-03-13T13:40:03.207Z,14.38
2023-03-13T13:45:03.023Z,14.44
2023-03-13T13:50:02.694Z,14.35
2023-03-13T13:55:03.180Z,14.42
2023-03-13T14:00:02.601Z,14.41
2023-03-13T14:05:03.199Z,14.34
2023-03-13T14:10:02.288Z,14.33
2023-03-13T14:15:03.078Z,14.35
2023-03-13T14:20:02.859Z,14.3
2023-03-13T14:25:02.652Z,14.63
2023-03-13T14:30:02.396Z,14.92
2023-03-13T14:35:02.271Z,14.84
2023-03-13T14:40:02.248Z,14.83
2023-03-13T14:45:03.158Z,14.7
2023-03-13T14:50:02.854Z,14.61
2023-03-13T14:55:03.561Z,14.93
2023-03-13T15:00:03.460Z,15.18
2023-03-13T15:05:03.118Z,15.41
2023-03-13T15:10:03.162Z,14.93
2023-03-13T15:15:02.858Z,15.58
2023-03-13T15:20:02.792Z,15.41
2023-03-13T15:25:06.272Z,15.3
2023-03-13T15:30:02.902Z,14.75
2023-03-13T15:35:02.643Z,14.56
2023-03-13T15:40:02.461Z,14.76
2023-03-13T15:45:02.329Z,15.17
2023-03-13T15:50:03.021Z,14.73
2023-03-13T15:55:03.837Z,14.41
2023-03-13T16:00:02.694Z,14.24
2023-03-13T16:05:02.510Z,14.19
2023-03-13T16:10:02.320Z,14.37
2023-03-13T16:15:02.460Z,14.41
2023-03-13T16:20:03.413Z,14.25
2023-03-13T16:25:02.854Z,14.18
2023-03-13T16:30:02.617Z,14.36
2023-03-13T16:35:02.426Z,14.14
2023-03-13T16:40:03.239Z,14.28
2023-03-13T16:45:02.965Z,14.22
2023-03-13T16:50:02.767Z,14.35
2023-03-13T16:55:02.963Z,14.17
2023-03-13T17:00:02.429Z,14.12
2023-03-13T17:05:03.108Z,13.98
2023-03-13T17:10:02.924Z,14
2023-03-13T17:15:02.668Z,13.8
2023-03-13T17:20:02.903Z,13.66
2023-03-13T17:25:02.793Z,13.44
2023-03-13T17:30:02.546Z,13.28
2023-03-13T17:35:02.618Z,13.32
2023-03-13T17:40:02.285Z,13.25
2023-03-13T17:45:02.979Z,13.27
2023-03-13T17:50:02.773Z,13.13
2023-03-13T17:55:03.457Z,12.99
2023-03-13T18:00:03.195Z,13.1
2023-03-13T18:05:02.935Z,13.01
2023-03-13T18:10:02.677Z,13.22
2023-03-13T18:15:02.544Z,13.22
2023-03-13T18:20:02.279Z,13.18
2023-03-13T18:25:03.097Z,13.22
2023-03-13T18:30:02.961Z,13.2
2023-03-13T18:35:02.635Z,12.98
2023-03-13T18:40:02.383Z,12.92
2023-03-13T18:45:03.156Z,12.77
2023-03-13T18:50:03.144Z,12.79
2023-03-13T18:55:03.597Z,12.48
2023-03-13T19:00:02.818Z,12.23
2023-03-13T19:05:02.848Z,11.99
2023-03-13T19:10:02.518Z,11.82
2023-03-13T19:15:02.333Z,11.68
2023-03-13T19:20:03.102Z,11.98
2023-03-13T19:25:02.935Z,12.06
2023-03-13T19:30:02.855Z,12.09
2023-03-13T19:35:02.519Z,12.12
2023-03-13T19:40:02.243Z,12.28
2023-03-13T19:45:03.311Z,13.03
2023-03-13T19:50:02.948Z,13.22
2023-03-13T19:55:06.094Z,12.93
2023-03-13T20:00:02.428Z,12.94
2023-03-13T20:05:03.125Z,12.91
2023-03-13T20:10:03.046Z,12.69
2023-03-13T20:15:02.811Z,12.62
2023-03-13T20:20:02.508Z,12.79
2023-03-13T20:25:02.264Z,12.65
2023-03-13T20:30:02.959Z,12.58
2023-03-13T20:35:02.646Z,12.48
2023-03-13T20:40:02.419Z,12.49
2023-03-13T20:45:03.160Z,12.38
2023-03-13T20:50:02.852Z,12.25
2023-03-13T20:55:03.132Z,12.27
2023-03-13T21:00:02.936Z,12.22
2023-03-13T21:05:02.648Z,12.18
2023-03-13T21:10:02.456Z,12.52
2023-03-13T21:15:05.061Z,12.19
2023-03-13T21:20:03.125Z,12.28
2023-03-13T21:25:02.830Z,12.06
2023-03-13T21:30:02.651Z,12.41
2023-03-13T21:35:02.565Z,12.2
2023-03-13T21:40:02.262Z,12.32
2023-03-13T21:45:02.320Z,12.2
2023-03-13T21:50:03.148Z,12.19
2023-03-13T21:55:03.314Z,12.22
2023-03-13T22:00:02.613Z,12.2
2023-03-13T22:05:02.841Z,11.99
2023-03-13T22:10:02.296Z,11.8
2023-03-13T22:15:03.152Z,11.75
2023-03-13T22:20:02.886Z,11.68
2023-03-13T22:25:02.752Z,11.59
2023-03-13T22:30:02.641Z,11.69
2023-03-13T22:35:02.769Z,11.3
2023-03-13T22:40:02.364Z,11.31
2023-03-13T22:45:02.631Z,11.22
2023-03-13T22:50:02.350Z,11.17
2023-03-13T22:55:03.701Z,11.23
2023-03-13T23:00:02.931Z,11.24
2023-03-13T23:05:02.687Z,11.34
2023-03-13T23:10:03.103Z,11
2023-03-13T23:15:02.899Z,11.18
2023-03-13T23:20:02.711Z,10.9
2023-03-13T23:25:02.419Z,10.8
2023-03-13T23:30:02.304Z,10.78
2023-03-13T23:35:02.278Z,10.54
2023-03-13T23:40:03.058Z,10.56
2023-03-13T23:45:03.092Z,10.52
2023-03-13T23:50:03.034Z,10.65
2023-03-13T23:55:03.275Z,10.57
